sensor_id;sensor_type;location;lat;lon;timestamp;temperature;humidity
12152;DHT22;6139;51.274;7.128;2022-09-03T00:01:04;17.60;99.90
12152;DHT22;6139;51.274;7.128;2022-09-03T00:02:13;17.60;99.90
12152;DHT22;6139;51.274;7.128;2022-09-03T00:03:19;17.60;99.90
12152;DHT22;6139;51.274;7.128;2022-09-03T00:04:26;17.60;99.90
12152;DHT22;6139;51.274;7.128;2022-09-03T00:05:36;17.60;99.90
12152;DHT22;6139;51.274;7.128;2022-09-03T00:06:44;17.50;99.90
12152;DHT22;6139;51.274;7.128;2022-09-03T00:07:53;17.50;99.90
12152;DHT22;6139;51.274;7.128;2022-09-03T00:09:02;17.50;99.90
12152;DHT22;6139;51.274;7.128;2022-09-03T00:10:10;17.50;99.90
12152;DHT22;6139;51.274;7.128;2022-09-03T00:11:18;17.50;99.90
12152;DHT22;6139;51.274;7.128;2022-09-03T00:12:25;17.50;99.90
12152;DHT22;6139;51.274;7.128;2022-09-03T00:13:32;17.50;99.90
12152;DHT22;6139;51.274;7.128;2022-09-03T00:14:38;17.40;83.10
12152;DHT22;6139;51.274;7.128;2022-09-03T00:15:41;17.40;99.90
12152;DHT22;6139;51.274;7.128;2022-09-03T00:16:47;17.40;99.90
12152;DHT22;6139;51.274;7.128;2022-09-03T00:17:53;17.40;99.90
12152;DHT22;6139;51.274;7.128;2022-09-03T00:18:58;17.40;99.90
12152;DHT22;6139;51.274;7.128;2022-09-03T00:20:06;17.40;99.90
12152;DHT22;6139;51.274;7.128;2022-09-03T00:21:10;17.40;99.90
12152;DHT22;6139;51.274;7.128;2022-09-03T00:22:16;17.40;99.90
12152;DHT22;6139;51.274;7.128;2022-09-03T00:23:21;17.40;99.90
12152;DHT22;6139;51.274;7.128;2022-09-03T00:24:28;17.40;99.00
12152;DHT22;6139;51.274;7.128;2022-09-03T00:30:15;17.40;99.90
12152;DHT22;6139;51.274;7.128;2022-09-03T00:31:21;17.40;99.90
12152;DHT22;6139;51.274;7.128;2022-09-03T00:32:28;17.30;99.90
12152;DHT22;6139;51.274;7.128;2022-09-03T00:33:38;17.30;99.90
12152;DHT22;6139;51.274;7.128;2022-09-03T00:34:44;17.30;99.90
12152;DHT22;6139;51.274;7.128;2022-09-03T00:36:01;17.30;99.90
12152;DHT22;6139;51.274;7.128;2022-09-03T00:37:03;17.40;99.90
12152;DHT22;6139;51.274;7.128;2022-09-03T00:38:05;17.40;99.90
12152;DHT22;6139;51.274;7.128;2022-09-03T00:39:09;17.30;99.90
12152;DHT22;6139;51.274;7.128;2022-09-03T00:40:18;17.40;99.90
12152;DHT22;6139;51.274;7.128;2022-09-03T00:41:30;17.40;99.90
12152;DHT22;6139;51.274;7.128;2022-09-03T00:42:41;17.30;99.90
12152;DHT22;6139;51.274;7.128;2022-09-03T00:43:57;17.30;99.90
12152;DHT22;6139;51.274;7.128;2022-09-03T00:45:22;17.30;99.90
12152;DHT22;6139;51.274;7.128;2022-09-03T00:46:32;17.30;99.90
12152;DHT22;6139;51.274;7.128;2022-09-03T00:47:43;17.30;99.90
12152;DHT22;6139;51.274;7.128;2022-09-03T00:48:59;17.30;99.90
12152;DHT22;6139;51.274;7.128;2022-09-03T00:50:10;17.30;99.90
12152;DHT22;6139;51.274;7.128;2022-09-03T00:51:20;17.30;99.90
12152;DHT22;6139;51.274;7.128;2022-09-03T00:52:37;17.30;99.90
12152;DHT22;6139;51.274;7.128;2022-09-03T00:53:53;17.30;99.90
12152;DHT22;6139;51.274;7.128;2022-09-03T00:54:59;17.20;99.90
12152;DHT22;6139;51.274;7.128;2022-09-03T00:56:10;17.20;99.90
12152;DHT22;6139;51.274;7.128;2022-09-03T00:57:26;17.20;99.90
12152;DHT22;6139;51.274;7.128;2022-09-03T00:58:43;17.20;99.90
12152;DHT22;6139;51.274;7.128;2022-09-03T00:59:56;17.20;99.90
12152;DHT22;6139;51.274;7.128;2022-09-03T01:01:07;17.20;99.90
12152;DHT22;6139;51.274;7.128;2022-09-03T01:02:16;17.20;99.90
12152;DHT22;6139;51.274;7.128;2022-09-03T01:03:30;17.20;99.90
12152;DHT22;6139;51.274;7.128;2022-09-03T01:04:40;17.20;99.90
12152;DHT22;6139;51.274;7.128;2022-09-03T01:06:02;17.20;99.90
12152;DHT22;6139;51.274;7.128;2022-09-03T01:07:13;17.20;99.90
12152;DHT22;6139;51.274;7.128;2022-09-03T01:08:30;17.20;99.90
12152;DHT22;6139;51.274;7.128;2022-09-03T01:09:43;17.20;99.90
12152;DHT22;6139;51.274;7.128;2022-09-03T01:10:53;17.20;99.90
12152;DHT22;6139;51.274;7.128;2022-09-03T01:12:01;17.20;99.90
12152;DHT22;6139;51.274;7.128;2022-09-03T01:13:10;17.10;99.90
12152;DHT22;6139;51.274;7.128;2022-09-03T01:14:21;17.10;99.90
12152;DHT22;6139;51.274;7.128;2022-09-03T01:15:34;17.10;99.90
12152;DHT22;6139;51.274;7.128;2022-09-03T01:16:47;17.10;99.90
12152;DHT22;6139;51.274;7.128;2022-09-03T01:18:01;17.10;99.90
12152;DHT22;6139;51.274;7.128;2022-09-03T01:19:19;17.10;99.90
12152;DHT22;6139;51.274;7.128;2022-09-03T01:20:33;17.10;99.90
12152;DHT22;6139;51.274;7.128;2022-09-03T01:21:48;17.10;99.90
12152;DHT22;6139;51.274;7.128;2022-09-03T01:23:10;17.10;99.90
12152;DHT22;6139;51.274;7.128;2022-09-03T01:24:40;17.10;99.90
12152;DHT22;6139;51.274;7.128;2022-09-03T01:25:52;17.10;99.90
12152;DHT22;6139;51.274;7.128;2022-09-03T01:27:10;17.00;99.90
12152;DHT22;6139;51.274;7.128;2022-09-03T01:28:26;17.00;99.90
12152;DHT22;6139;51.274;7.128;2022-09-03T01:29:36;17.00;99.90
12152;DHT22;6139;51.274;7.128;2022-09-03T01:30:42;17.00;99.90
12152;DHT22;6139;51.274;7.128;2022-09-03T01:31:55;17.00;99.90
12152;DHT22;6139;51.274;7.128;2022-09-03T01:33:05;17.00;99.90
12152;DHT22;6139;51.274;7.128;2022-09-03T01:34:18;17.00;99.90
12152;DHT22;6139;51.274;7.128;2022-09-03T01:35:26;17.00;99.90
12152;DHT22;6139;51.274;7.128;2022-09-03T01:36:35;17.00;99.90
12152;DHT22;6139;51.274;7.128;2022-09-03T01:37:51;17.00;99.90
12152;DHT22;6139;51.274;7.128;2022-09-03T01:38:57;17.00;99.90
12152;DHT22;6139;51.274;7.128;2022-09-03T01:40:07;17.00;99.90
12152;DHT22;6139;51.274;7.128;2022-09-03T01:41:20;17.00;99.90
12152;DHT22;6139;51.274;7.128;2022-09-03T01:42:52;17.00;99.90
12152;DHT22;6139;51.274;7.128;2022-09-03T01:44:08;17.00;99.90
12152;DHT22;6139;51.274;7.128;2022-09-03T01:45:39;16.90;99.90
12152;DHT22;6139;51.274;7.128;2022-09-03T01:46:49;16.90;99.90
12152;DHT22;6139;51.274;7.128;2022-09-03T01:48:00;16.90;99.90
12152;DHT22;6139;51.274;7.128;2022-09-03T01:49:16;16.90;99.90
12152;DHT22;6139;51.274;7.128;2022-09-03T01:50:32;16.90;99.90
12152;DHT22;6139;51.274;7.128;2022-09-03T01:51:37;16.90;99.90
12152;DHT22;6139;51.274;7.128;2022-09-03T01:52:45;16.90;99.90
12152;DHT22;6139;51.274;7.128;2022-09-03T01:54:22;16.90;99.90
12152;DHT22;6139;51.274;7.128;2022-09-03T01:55:31;16.90;99.90
12152;DHT22;6139;51.274;7.128;2022-09-03T01:56:49;16.90;99.90
12152;DHT22;6139;51.274;7.128;2022-09-03T01:57:59;16.90;99.90
12152;DHT22;6139;51.274;7.128;2022-09-03T01:59:06;16.90;99.90
12152;DHT22;6139;51.274;7.128;2022-09-03T02:00:11;16.90;99.90
12152;DHT22;6139;51.274;7.128;2022-09-03T02:01:18;16.80;99.90
12152;DHT22;6139;51.274;7.128;2022-09-03T02:02:24;16.80;99.90
12152;DHT22;6139;51.274;7.128;2022-09-03T02:03:25;16.80;99.90
12152;DHT22;6139;51.274;7.128;2022-09-03T02:04:34;16.80;99.90
12152;DHT22;6139;51.274;7.128;2022-09-03T02:05:36;16.90;99.90
12152;DHT22;6139;51.274;7.128;2022-09-03T02:06:39;16.90;99.90
12152;DHT22;6139;51.274;7.128;2022-09-03T02:07:43;16.90;99.90
12152;DHT22;6139;51.274;7.128;2022-09-03T02:08:46;16.90;99.90
12152;DHT22;6139;51.274;7.128;2022-09-03T02:09:47;16.80;1.00
12152;DHT22;6139;51.274;7.128;2022-09-03T02:10:52;16.80;1.00
12152;DHT22;6139;51.274;7.128;2022-09-03T02:11:59;16.80;1.00
12152;DHT22;6139;51.274;7.128;2022-09-03T02:13:07;16.80;1.00
12152;DHT22;6139;51.274;7.128;2022-09-03T02:14:12;16.80;1.00
12152;DHT22;6139;51.274;7.128;2022-09-03T02:15:16;16.90;1.00
12152;DHT22;6139;51.274;7.128;2022-09-03T02:16:20;16.90;1.00
12152;DHT22;6139;51.274;7.128;2022-09-03T02:17:24;16.90;1.00
12152;DHT22;6139;51.274;7.128;2022-09-03T02:18:29;16.80;1.00
12152;DHT22;6139;51.274;7.128;2022-09-03T02:19:32;16.80;3.50
12152;DHT22;6139;51.274;7.128;2022-09-03T02:20:34;16.80;91.20
12152;DHT22;6139;51.274;7.128;2022-09-03T02:21:38;16.80;99.90
12152;DHT22;6139;51.274;7.128;2022-09-03T02:22:40;16.80;1.00
12152;DHT22;6139;51.274;7.128;2022-09-03T02:23:43;16.80;99.90
12152;DHT22;6139;51.274;7.128;2022-09-03T02:24:45;16.80;1.00
12152;DHT22;6139;51.274;7.128;2022-09-03T02:25:50;16.80;34.50
12152;DHT22;6139;51.274;7.128;2022-09-03T02:26:53;16.80;99.90
12152;DHT22;6139;51.274;7.128;2022-09-03T02:27:55;16.80;99.90
12152;DHT22;6139;51.274;7.128;2022-09-03T02:28:58;16.80;60.00
12152;DHT22;6139;51.274;7.128;2022-09-03T02:30:03;16.70;1.00
12152;DHT22;6139;51.274;7.128;2022-09-03T02:31:05;16.70;1.00
12152;DHT22;6139;51.274;7.128;2022-09-03T02:32:06;16.80;1.00
12152;DHT22;6139;51.274;7.128;2022-09-03T02:33:08;16.70;1.00
12152;DHT22;6139;51.274;7.128;2022-09-03T02:34:10;16.70;1.00
12152;DHT22;6139;51.274;7.128;2022-09-03T02:35:12;16.70;99.90
12152;DHT22;6139;51.274;7.128;2022-09-03T02:36:17;16.70;1.00
12152;DHT22;6139;51.274;7.128;2022-09-03T02:37:21;16.70;99.90
12152;DHT22;6139;51.274;7.128;2022-09-03T02:38:23;16.70;99.90
12152;DHT22;6139;51.274;7.128;2022-09-03T02:39:27;16.70;1.00
12152;DHT22;6139;51.274;7.128;2022-09-03T02:40:28;16.70;1.00
12152;DHT22;6139;51.274;7.128;2022-09-03T02:41:31;16.70;99.90
12152;DHT22;6139;51.274;7.128;2022-09-03T02:42:32;16.70;99.90
12152;DHT22;6139;51.274;7.128;2022-09-03T02:43:39;16.60;99.90
12152;DHT22;6139;51.274;7.128;2022-09-03T02:44:44;16.70;99.90
12152;DHT22;6139;51.274;7.128;2022-09-03T02:45:53;16.70;99.90
12152;DHT22;6139;51.274;7.128;2022-09-03T02:46:57;16.60;99.90
12152;DHT22;6139;51.274;7.128;2022-09-03T02:47:59;16.60;99.90
12152;DHT22;6139;51.274;7.128;2022-09-03T02:49:01;16.60;43.60
12152;DHT22;6139;51.274;7.128;2022-09-03T02:50:03;16.60;99.90
12152;DHT22;6139;51.274;7.128;2022-09-03T02:51:04;16.60;99.90
12152;DHT22;6139;51.274;7.128;2022-09-03T02:52:08;16.60;99.90
12152;DHT22;6139;51.274;7.128;2022-09-03T02:53:09;16.60;99.90
12152;DHT22;6139;51.274;7.128;2022-09-03T02:54:11;16.60;99.90
12152;DHT22;6139;51.274;7.128;2022-09-03T02:55:14;16.60;99.90
12152;DHT22;6139;51.274;7.128;2022-09-03T02:56:16;16.60;1.00
12152;DHT22;6139;51.274;7.128;2022-09-03T02:57:17;16.60;99.90
12152;DHT22;6139;51.274;7.128;2022-09-03T02:58:19;16.60;99.90
12152;DHT22;6139;51.274;7.128;2022-09-03T02:59:20;16.60;99.90
12152;DHT22;6139;51.274;7.128;2022-09-03T03:00:23;16.60;99.90
12152;DHT22;6139;51.274;7.128;2022-09-03T03:01:26;16.60;1.00
12152;DHT22;6139;51.274;7.128;2022-09-03T03:02:28;16.60;1.00
12152;DHT22;6139;51.274;7.128;2022-09-03T03:03:29;16.60;1.00
12152;DHT22;6139;51.274;7.128;2022-09-03T03:04:32;16.60;1.00
12152;DHT22;6139;51.274;7.128;2022-09-03T03:05:41;16.60;1.00
12152;DHT22;6139;51.274;7.128;2022-09-03T03:06:43;16.60;1.00
12152;DHT22;6139;51.274;7.128;2022-09-03T03:07:45;16.60;1.00
12152;DHT22;6139;51.274;7.128;2022-09-03T03:08:47;16.60;1.00
12152;DHT22;6139;51.274;7.128;2022-09-03T03:09:49;16.60;1.00
12152;DHT22;6139;51.274;7.128;2022-09-03T03:10:52;16.60;1.00
12152;DHT22;6139;51.274;7.128;2022-09-03T03:11:55;16.60;1.00
12152;DHT22;6139;51.274;7.128;2022-09-03T03:12:57;16.60;1.00
12152;DHT22;6139;51.274;7.128;2022-09-03T03:13:58;16.60;1.00
12152;DHT22;6139;51.274;7.128;2022-09-03T03:18:10;16.60;1.00
12152;DHT22;6139;51.274;7.128;2022-09-03T03:19:13;16.60;1.00
12152;DHT22;6139;51.274;7.128;2022-09-03T03:20:14;16.60;1.00
12152;DHT22;6139;51.274;7.128;2022-09-03T03:21:17;16.60;1.00
12152;DHT22;6139;51.274;7.128;2022-09-03T03:22:19;16.60;1.00
12152;DHT22;6139;51.274;7.128;2022-09-03T03:23:21;16.60;4.40
12152;DHT22;6139;51.274;7.128;2022-09-03T03:24:22;16.60;1.00
12152;DHT22;6139;51.274;7.128;2022-09-03T03:25:24;16.60;1.00
12152;DHT22;6139;51.274;7.128;2022-09-03T03:26:25;16.50;24.80
12152;DHT22;6139;51.274;7.128;2022-09-03T03:27:27;16.60;57.80
12152;DHT22;6139;51.274;7.128;2022-09-03T03:28:29;16.60;32.80
12152;DHT22;6139;51.274;7.128;2022-09-03T03:29:33;16.60;1.00
12152;DHT22;6139;51.274;7.128;2022-09-03T03:30:36;16.50;1.00
12152;DHT22;6139;51.274;7.128;2022-09-03T03:31:40;16.50;28.40
12152;DHT22;6139;51.274;7.128;2022-09-03T03:32:41;16.60;1.00
12152;DHT22;6139;51.274;7.128;2022-09-03T03:33:50;16.60;1.00
12152;DHT22;6139;51.274;7.128;2022-09-03T03:34:52;16.60;1.00
12152;DHT22;6139;51.274;7.128;2022-09-03T03:35:54;16.60;1.00
12152;DHT22;6139;51.274;7.128;2022-09-03T03:36:55;16.60;1.00
12152;DHT22;6139;51.274;7.128;2022-09-03T03:37:57;16.50;1.00
12152;DHT22;6139;51.274;7.128;2022-09-03T03:38:59;16.50;1.00
12152;DHT22;6139;51.274;7.128;2022-09-03T03:40:03;16.50;66.00
12152;DHT22;6139;51.274;7.128;2022-09-03T03:41:09;16.50;1.00
12152;DHT22;6139;51.274;7.128;2022-09-03T03:42:11;16.50;57.90
12152;DHT22;6139;51.274;7.128;2022-09-03T03:43:13;16.50;84.00
12152;DHT22;6139;51.274;7.128;2022-09-03T03:44:16;16.50;79.90
12152;DHT22;6139;51.274;7.128;2022-09-03T03:45:19;16.50;99.90
12152;DHT22;6139;51.274;7.128;2022-09-03T03:46:22;16.50;99.90
12152;DHT22;6139;51.274;7.128;2022-09-03T03:47:23;16.50;99.90
12152;DHT22;6139;51.274;7.128;2022-09-03T03:48:25;16.50;77.60
12152;DHT22;6139;51.274;7.128;2022-09-03T03:49:28;16.50;99.90
12152;DHT22;6139;51.274;7.128;2022-09-03T03:50:29;16.50;99.90
12152;DHT22;6139;51.274;7.128;2022-09-03T03:51:31;16.50;99.90
12152;DHT22;6139;51.274;7.128;2022-09-03T03:52:33;16.50;99.90
12152;DHT22;6139;51.274;7.128;2022-09-03T03:53:35;16.50;99.90
12152;DHT22;6139;51.274;7.128;2022-09-03T03:54:38;16.50;99.90
12152;DHT22;6139;51.274;7.128;2022-09-03T03:55:39;16.50;99.90
12152;DHT22;6139;51.274;7.128;2022-09-03T03:56:41;16.50;99.90
12152;DHT22;6139;51.274;7.128;2022-09-03T03:57:42;16.50;99.90
12152;DHT22;6139;51.274;7.128;2022-09-03T03:58:46;16.50;99.90
12152;DHT22;6139;51.274;7.128;2022-09-03T03:59:48;16.50;99.90
12152;DHT22;6139;51.274;7.128;2022-09-03T04:00:51;16.50;99.90
12152;DHT22;6139;51.274;7.128;2022-09-03T04:01:53;16.50;99.90
12152;DHT22;6139;51.274;7.128;2022-09-03T04:02:56;16.50;99.90
12152;DHT22;6139;51.274;7.128;2022-09-03T04:03:57;16.50;99.90
12152;DHT22;6139;51.274;7.128;2022-09-03T04:05:01;16.50;99.90
12152;DHT22;6139;51.274;7.128;2022-09-03T04:06:03;16.50;99.90
12152;DHT22;6139;51.274;7.128;2022-09-03T04:07:05;16.50;99.90
12152;DHT22;6139;51.274;7.128;2022-09-03T04:08:06;16.50;99.90
12152;DHT22;6139;51.274;7.128;2022-09-03T04:09:09;16.50;99.90
12152;DHT22;6139;51.274;7.128;2022-09-03T04:10:10;16.50;99.90
12152;DHT22;6139;51.274;7.128;2022-09-03T04:11:14;16.50;99.90
12152;DHT22;6139;51.274;7.128;2022-09-03T04:12:15;16.50;99.90
12152;DHT22;6139;51.274;7.128;2022-09-03T04:13:18;16.50;99.90
12152;DHT22;6139;51.274;7.128;2022-09-03T04:14:19;16.50;99.90
12152;DHT22;6139;51.274;7.128;2022-09-03T04:15:21;16.50;99.90
12152;DHT22;6139;51.274;7.128;2022-09-03T04:16:24;16.50;99.90
12152;DHT22;6139;51.274;7.128;2022-09-03T04:17:26;16.50;99.90
12152;DHT22;6139;51.274;7.128;2022-09-03T04:18:28;16.50;99.90
12152;DHT22;6139;51.274;7.128;2022-09-03T04:19:29;16.50;99.90
12152;DHT22;6139;51.274;7.128;2022-09-03T04:20:32;16.50;99.90
12152;DHT22;6139;51.274;7.128;2022-09-03T04:21:34;16.50;99.90
12152;DHT22;6139;51.274;7.128;2022-09-03T04:22:36;16.50;1.00
12152;DHT22;6139;51.274;7.128;2022-09-03T04:23:39;16.50;1.00
12152;DHT22;6139;51.274;7.128;2022-09-03T04:24:40;16.50;1.00
12152;DHT22;6139;51.274;7.128;2022-09-03T04:25:42;16.50;1.00
12152;DHT22;6139;51.274;7.128;2022-09-03T04:26:44;16.50;99.90
12152;DHT22;6139;51.274;7.128;2022-09-03T04:27:46;16.50;1.00
12152;DHT22;6139;51.274;7.128;2022-09-03T04:28:48;16.50;1.00
12152;DHT22;6139;51.274;7.128;2022-09-03T04:29:50;16.50;1.00
12152;DHT22;6139;51.274;7.128;2022-09-03T04:30:51;16.50;1.00
12152;DHT22;6139;51.274;7.128;2022-09-03T04:31:53;16.40;1.00
12152;DHT22;6139;51.274;7.128;2022-09-03T04:33:13;16.40;1.00
12152;DHT22;6139;51.274;7.128;2022-09-03T04:34:14;16.40;1.00
12152;DHT22;6139;51.274;7.128;2022-09-03T04:35:16;16.40;1.00
12152;DHT22;6139;51.274;7.128;2022-09-03T04:36:19;16.40;1.00
12152;DHT22;6139;51.274;7.128;2022-09-03T04:37:22;16.40;1.00
12152;DHT22;6139;51.274;7.128;2022-09-03T04:38:23;16.40;1.00
12152;DHT22;6139;51.274;7.128;2022-09-03T04:39:25;16.40;1.00
12152;DHT22;6139;51.274;7.128;2022-09-03T04:40:26;16.40;1.00
12152;DHT22;6139;51.274;7.128;2022-09-03T04:41:30;16.40;1.00
12152;DHT22;6139;51.274;7.128;2022-09-03T04:42:31;16.40;1.00
12152;DHT22;6139;51.274;7.128;2022-09-03T04:43:33;16.40;1.00
12152;DHT22;6139;51.274;7.128;2022-09-03T04:44:36;16.40;1.00
12152;DHT22;6139;51.274;7.128;2022-09-03T04:45:38;16.40;1.00
12152;DHT22;6139;51.274;7.128;2022-09-03T04:46:39;16.40;1.00
12152;DHT22;6139;51.274;7.128;2022-09-03T04:47:41;16.40;1.00
12152;DHT22;6139;51.274;7.128;2022-09-03T04:48:43;16.40;1.00
12152;DHT22;6139;51.274;7.128;2022-09-03T04:49:45;16.40;1.00
12152;DHT22;6139;51.274;7.128;2022-09-03T04:50:47;16.40;1.00
12152;DHT22;6139;51.274;7.128;2022-09-03T04:51:50;16.40;1.00
12152;DHT22;6139;51.274;7.128;2022-09-03T04:52:52;16.40;1.00
12152;DHT22;6139;51.274;7.128;2022-09-03T04:53:57;16.40;1.00
12152;DHT22;6139;51.274;7.128;2022-09-03T04:55:00;16.40;1.00
12152;DHT22;6139;51.274;7.128;2022-09-03T04:56:10;16.30;1.00
12152;DHT22;6139;51.274;7.128;2022-09-03T04:57:12;16.30;1.00
12152;DHT22;6139;51.274;7.128;2022-09-03T04:58:14;16.30;1.00
12152;DHT22;6139;51.274;7.128;2022-09-03T04:59:15;16.40;1.00
12152;DHT22;6139;51.274;7.128;2022-09-03T05:00:17;16.30;1.00
12152;DHT22;6139;51.274;7.128;2022-09-03T05:01:21;16.40;1.00
12152;DHT22;6139;51.274;7.128;2022-09-03T05:02:23;16.40;1.00
12152;DHT22;6139;51.274;7.128;2022-09-03T05:03:25;16.30;1.00
12152;DHT22;6139;51.274;7.128;2022-09-03T05:04:27;16.30;1.00
12152;DHT22;6139;51.274;7.128;2022-09-03T05:05:28;16.30;1.00
12152;DHT22;6139;51.274;7.128;2022-09-03T05:06:30;16.30;1.00
12152;DHT22;6139;51.274;7.128;2022-09-03T05:07:33;16.30;1.00
12152;DHT22;6139;51.274;7.128;2022-09-03T05:08:38;16.30;1.00
12152;DHT22;6139;51.274;7.128;2022-09-03T05:09:40;16.30;1.00
12152;DHT22;6139;51.274;7.128;2022-09-03T05:10:41;16.30;1.00
12152;DHT22;6139;51.274;7.128;2022-09-03T05:11:43;16.30;1.00
12152;DHT22;6139;51.274;7.128;2022-09-03T05:12:45;16.30;1.00
12152;DHT22;6139;51.274;7.128;2022-09-03T05:13:48;16.30;32.70
12152;DHT22;6139;51.274;7.128;2022-09-03T05:14:49;16.30;99.90
12152;DHT22;6139;51.274;7.128;2022-09-03T05:15:52;16.30;99.90
12152;DHT22;6139;51.274;7.128;2022-09-03T05:16:53;16.30;57.70
12152;DHT22;6139;51.274;7.128;2022-09-03T05:17:56;16.30;26.60
12152;DHT22;6139;51.274;7.128;2022-09-03T05:18:58;16.30;1.00
12152;DHT22;6139;51.274;7.128;2022-09-03T05:20:01;16.30;1.00
12152;DHT22;6139;51.274;7.128;2022-09-03T05:21:04;16.40;1.00
12152;DHT22;6139;51.274;7.128;2022-09-03T05:22:06;16.40;1.00
12152;DHT22;6139;51.274;7.128;2022-09-03T05:23:09;16.40;1.00
12152;DHT22;6139;51.274;7.128;2022-09-03T05:24:11;16.40;99.90
12152;DHT22;6139;51.274;7.128;2022-09-03T05:25:12;16.40;45.50
12152;DHT22;6139;51.274;7.128;2022-09-03T05:26:16;16.40;1.00
12152;DHT22;6139;51.274;7.128;2022-09-03T05:27:17;16.40;1.00
12152;DHT22;6139;51.274;7.128;2022-09-03T05:28:19;16.40;1.00
12152;DHT22;6139;51.274;7.128;2022-09-03T05:29:20;16.40;99.90
12152;DHT22;6139;51.274;7.128;2022-09-03T05:30:24;16.40;1.00
12152;DHT22;6139;51.274;7.128;2022-09-03T05:31:27;16.40;99.90
12152;DHT22;6139;51.274;7.128;2022-09-03T05:32:31;16.40;99.90
12152;DHT22;6139;51.274;7.128;2022-09-03T05:33:33;16.40;1.00
12152;DHT22;6139;51.274;7.128;2022-09-03T05:34:35;16.50;99.90
12152;DHT22;6139;51.274;7.128;2022-09-03T05:35:36;16.40;1.00
12152;DHT22;6139;51.274;7.128;2022-09-03T05:36:40;16.50;99.90
12152;DHT22;6139;51.274;7.128;2022-09-03T05:37:42;16.50;99.90
12152;DHT22;6139;51.274;7.128;2022-09-03T05:38:45;16.50;1.00
12152;DHT22;6139;51.274;7.128;2022-09-03T05:39:48;16.50;99.90
12152;DHT22;6139;51.274;7.128;2022-09-03T05:40:50;16.50;1.00
12152;DHT22;6139;51.274;7.128;2022-09-03T05:41:51;16.60;1.00
12152;DHT22;6139;51.274;7.128;2022-09-03T05:42:55;16.60;99.90
12152;DHT22;6139;51.274;7.128;2022-09-03T05:43:58;16.60;43.70
12152;DHT22;6139;51.274;7.128;2022-09-03T05:45:00;16.60;1.00
12152;DHT22;6139;51.274;7.128;2022-09-03T05:46:03;16.70;3.50
12152;DHT22;6139;51.274;7.128;2022-09-03T05:47:05;16.60;1.00
12152;DHT22;6139;51.274;7.128;2022-09-03T05:48:07;16.70;98.90
12152;DHT22;6139;51.274;7.128;2022-09-03T05:49:08;16.70;1.00
12152;DHT22;6139;51.274;7.128;2022-09-03T05:50:11;16.70;1.00
12152;DHT22;6139;51.274;7.128;2022-09-03T05:51:14;16.70;1.00
12152;DHT22;6139;51.274;7.128;2022-09-03T05:52:16;16.70;1.00
12152;DHT22;6139;51.274;7.128;2022-09-03T05:53:21;16.70;1.00
12152;DHT22;6139;51.274;7.128;2022-09-03T05:54:24;16.80;1.00
12152;DHT22;6139;51.274;7.128;2022-09-03T05:55:26;16.80;1.00
12152;DHT22;6139;51.274;7.128;2022-09-03T05:56:30;16.80;99.90
12152;DHT22;6139;51.274;7.128;2022-09-03T05:57:32;16.80;99.90
12152;DHT22;6139;51.274;7.128;2022-09-03T05:58:35;16.80;99.90
12152;DHT22;6139;51.274;7.128;2022-09-03T05:59:38;16.80;1.00
12152;DHT22;6139;51.274;7.128;2022-09-03T06:00:40;16.80;1.00
12152;DHT22;6139;51.274;7.128;2022-09-03T06:01:43;16.90;1.00
12152;DHT22;6139;51.274;7.128;2022-09-03T06:02:49;16.90;1.00
12152;DHT22;6139;51.274;7.128;2022-09-03T06:03:54;17.00;1.00
12152;DHT22;6139;51.274;7.128;2022-09-03T06:04:56;17.00;1.00
12152;DHT22;6139;51.274;7.128;2022-09-03T06:05:58;17.00;1.00
12152;DHT22;6139;51.274;7.128;2022-09-03T06:06:59;17.00;1.00
12152;DHT22;6139;51.274;7.128;2022-09-03T06:08:01;17.00;1.00
12152;DHT22;6139;51.274;7.128;2022-09-03T06:09:04;17.00;1.00
12152;DHT22;6139;51.274;7.128;2022-09-03T06:10:09;17.00;1.00
12152;DHT22;6139;51.274;7.128;2022-09-03T06:11:10;17.10;85.90
12152;DHT22;6139;51.274;7.128;2022-09-03T06:12:12;17.10;1.00
12152;DHT22;6139;51.274;7.128;2022-09-03T06:13:13;17.10;1.00
12152;DHT22;6139;51.274;7.128;2022-09-03T06:14:15;17.20;1.00
12152;DHT22;6139;51.274;7.128;2022-09-03T06:15:16;17.20;1.00
12152;DHT22;6139;51.274;7.128;2022-09-03T06:16:19;17.20;1.00
12152;DHT22;6139;51.274;7.128;2022-09-03T06:17:21;17.20;1.00
12152;DHT22;6139;51.274;7.128;2022-09-03T06:18:23;17.20;1.00
12152;DHT22;6139;51.274;7.128;2022-09-03T06:19:24;17.30;1.00
12152;DHT22;6139;51.274;7.128;2022-09-03T06:20:27;17.30;1.00
12152;DHT22;6139;51.274;7.128;2022-09-03T06:21:29;17.30;1.00
12152;DHT22;6139;51.274;7.128;2022-09-03T06:22:31;17.30;1.00
12152;DHT22;6139;51.274;7.128;2022-09-03T06:23:33;17.40;1.00
12152;DHT22;6139;51.274;7.128;2022-09-03T06:24:35;17.40;99.90
12152;DHT22;6139;51.274;7.128;2022-09-03T06:25:38;17.40;1.00
12152;DHT22;6139;51.274;7.128;2022-09-03T06:26:40;17.50;99.90
12152;DHT22;6139;51.274;7.128;2022-09-03T06:27:41;17.50;99.90
12152;DHT22;6139;51.274;7.128;2022-09-03T06:28:43;17.60;1.00
12152;DHT22;6139;51.274;7.128;2022-09-03T06:29:44;17.60;1.00
12152;DHT22;6139;51.274;7.128;2022-09-03T06:30:46;17.60;1.00
12152;DHT22;6139;51.274;7.128;2022-09-03T06:31:48;17.60;1.00
12152;DHT22;6139;51.274;7.128;2022-09-03T06:32:50;17.60;99.90
12152;DHT22;6139;51.274;7.128;2022-09-03T06:33:52;17.60;1.00
12152;DHT22;6139;51.274;7.128;2022-09-03T06:34:55;17.70;99.90
12152;DHT22;6139;51.274;7.128;2022-09-03T06:35:59;17.70;10.00
12152;DHT22;6139;51.274;7.128;2022-09-03T06:37:00;17.80;1.00
12152;DHT22;6139;51.274;7.128;2022-09-03T06:38:02;17.90;1.00
12152;DHT22;6139;51.274;7.128;2022-09-03T06:39:03;17.80;1.00
12152;DHT22;6139;51.274;7.128;2022-09-03T06:40:06;17.90;1.00
12152;DHT22;6139;51.274;7.128;2022-09-03T06:41:15;17.90;1.00
12152;DHT22;6139;51.274;7.128;2022-09-03T06:42:18;18.00;99.90
12152;DHT22;6139;51.274;7.128;2022-09-03T06:43:21;18.00;1.00
12152;DHT22;6139;51.274;7.128;2022-09-03T06:44:23;18.00;99.90
12152;DHT22;6139;51.274;7.128;2022-09-03T06:45:25;18.10;1.00
12152;DHT22;6139;51.274;7.128;2022-09-03T06:46:26;18.10;1.00
12152;DHT22;6139;51.274;7.128;2022-09-03T06:47:28;18.20;99.90
12152;DHT22;6139;51.274;7.128;2022-09-03T06:48:31;18.20;99.90
12152;DHT22;6139;51.274;7.128;2022-09-03T06:49:33;18.20;1.00
12152;DHT22;6139;51.274;7.128;2022-09-03T06:50:34;18.20;91.30
12152;DHT22;6139;51.274;7.128;2022-09-03T06:51:36;18.20;1.00
12152;DHT22;6139;51.274;7.128;2022-09-03T06:52:38;18.30;1.00
12152;DHT22;6139;51.274;7.128;2022-09-03T06:53:42;18.30;99.90
12152;DHT22;6139;51.274;7.128;2022-09-03T06:54:43;18.30;99.90
12152;DHT22;6139;51.274;7.128;2022-09-03T06:55:52;18.30;1.00
12152;DHT22;6139;51.274;7.128;2022-09-03T06:56:54;18.30;1.00
12152;DHT22;6139;51.274;7.128;2022-09-03T06:57:57;18.40;1.00
12152;DHT22;6139;51.274;7.128;2022-09-03T06:59:02;18.50;1.00
12152;DHT22;6139;51.274;7.128;2022-09-03T07:00:06;18.50;99.90
12152;DHT22;6139;51.274;7.128;2022-09-03T07:01:10;18.50;99.90
12152;DHT22;6139;51.274;7.128;2022-09-03T07:02:11;18.60;99.90
12152;DHT22;6139;51.274;7.128;2022-09-03T07:03:13;18.60;1.00
12152;DHT22;6139;51.274;7.128;2022-09-03T07:04:15;18.70;99.90
12152;DHT22;6139;51.274;7.128;2022-09-03T07:05:17;18.70;99.90
12152;DHT22;6139;51.274;7.128;2022-09-03T07:06:18;18.70;99.90
12152;DHT22;6139;51.274;7.128;2022-09-03T07:07:21;18.80;99.90